createdAt,value
2022-08-28T00:01:03.350Z,16.87
2022-08-28T00:05:55.125Z,16.79
2022-08-28T00:10:46.925Z,16.73
2022-08-28T00:15:39.186Z,16.64
2022-08-28T00:20:32.320Z,16.61
2022-08-28T00:25:27.131Z,16.56
2022-08-28T00:30:29.888Z,16.50
2022-08-28T00:35:23.781Z,16.43
2022-08-28T00:40:19.982Z,16.38
2022-08-28T00:45:22.888Z,16.32
2022-08-28T00:50:18.821Z,16.27
2022-08-28T00:55:14.236Z,16.24
2022-08-28T01:00:08.669Z,16.19
2022-08-28T01:05:00.590Z,16.13
2022-08-28T01:09:54.921Z,16.07
2022-08-28T01:14:49.183Z,16.02
2022-08-28T01:19:45.553Z,16.02
2022-08-28T01:24:39.433Z,16.00
2022-08-28T01:29:31.174Z,15.94
2022-08-28T01:34:22.814Z,15.91
2022-08-28T01:39:21.283Z,15.88
2022-08-28T01:44:15.301Z,15.83
2022-08-28T01:49:12.050Z,15.84
2022-08-28T01:54:03.758Z,15.83
2022-08-28T01:58:55.493Z,15.81
2022-08-28T02:03:47.473Z,15.83
2022-08-28T02:08:39.166Z,15.80
2022-08-28T02:13:30.969Z,15.81
2022-08-28T02:18:22.878Z,15.76
2022-08-28T02:23:14.814Z,15.73
2022-08-28T02:28:06.603Z,15.67
2022-08-28T02:32:58.580Z,15.63
2022-08-28T02:37:51.486Z,15.57
2022-08-28T02:42:46.389Z,15.51
2022-08-28T02:47:40.095Z,15.47
2022-08-28T02:52:31.680Z,15.38
2022-08-28T02:57:23.479Z,15.36
2022-08-28T03:02:15.277Z,15.30
2022-08-28T03:07:11.820Z,15.28
2022-08-28T03:12:03.833Z,15.22
2022-08-28T03:16:55.456Z,15.16
2022-08-28T03:21:47.117Z,15.12
2022-08-28T03:26:38.731Z,15.06
2022-08-28T03:31:33.327Z,14.99
2022-08-28T03:36:27.401Z,14.96
2022-08-28T03:41:22.049Z,14.91
2022-08-28T03:46:16.736Z,14.88
2022-08-28T03:51:10.363Z,14.84
2022-08-28T03:56:02.627Z,14.78
2022-08-28T04:00:54.578Z,14.72
2022-08-28T04:05:47.701Z,14.70
2022-08-28T04:10:39.390Z,14.65
2022-08-28T04:15:31.057Z,14.59
2022-08-28T04:20:22.681Z,14.57
2022-08-28T04:25:15.096Z,14.51
2022-08-28T04:30:07.815Z,14.48
2022-08-28T04:35:02.385Z,14.41
2022-08-28T04:39:54.212Z,14.38
2022-08-28T04:44:45.853Z,14.33
2022-08-28T04:49:37.596Z,14.28
2022-08-28T04:54:29.353Z,14.24
2022-08-28T04:59:21.277Z,14.21
2022-08-28T05:04:13.054Z,14.19
2022-08-28T05:09:04.707Z,14.20
2022-08-28T05:13:56.848Z,14.18
2022-08-28T05:18:49.806Z,14.16
2022-08-28T05:23:42.067Z,14.13
2022-08-28T05:28:33.699Z,14.12
2022-08-28T05:33:25.843Z,14.13
2022-08-28T05:38:17.646Z,14.13
2022-08-28T05:43:09.671Z,14.17
2022-08-28T05:48:01.276Z,14.20
2022-08-28T05:52:53.172Z,14.21
2022-08-28T05:57:44.768Z,14.22
2022-08-28T06:02:36.388Z,14.33
2022-08-28T06:07:28.029Z,14.43
2022-08-28T06:12:19.654Z,14.48
2022-08-28T06:17:11.333Z,14.50
2022-08-28T06:22:07.259Z,14.54
2022-08-28T06:26:59.892Z,14.58
2022-08-28T06:32:01.065Z,14.63
2022-08-28T06:36:54.154Z,14.65
2022-08-28T06:41:46.167Z,14.67
2022-08-28T06:46:38.093Z,14.67
2022-08-28T06:51:30.244Z,14.67
2022-08-28T06:56:26.349Z,14.67
2022-08-28T07:01:29.862Z,14.73
2022-08-28T07:06:23.405Z,14.88
2022-08-28T07:11:20.362Z,15.06
2022-08-28T07:16:15.016Z,15.57
2022-08-28T07:21:11.624Z,16.32
2022-08-28T07:26:11.189Z,17.14
2022-08-28T07:31:06.675Z,17.46
2022-08-28T07:35:59.310Z,18.10
2022-08-28T07:40:52.138Z,18.88
2022-08-28T07:45:44.530Z,19.66
2022-08-28T07:50:36.522Z,20.33
2022-08-28T07:55:31.457Z,20.88
2022-08-28T08:00:23.135Z,21.41
2022-08-28T08:05:14.792Z,22.06
2022-08-28T08:10:08.245Z,22.60
2022-08-28T08:15:00.822Z,22.98
2022-08-28T08:19:52.651Z,23.55
2022-08-28T08:24:44.558Z,23.88
2022-08-28T08:29:38.904Z,24.12
2022-08-28T08:34:31.752Z,24.51
2022-08-28T08:39:23.706Z,24.73
2022-08-28T08:44:34.369Z,25.13
2022-08-28T08:49:38.093Z,25.71
2022-08-28T08:54:31.458Z,26.12
2022-08-28T08:59:30.226Z,26.34
2022-08-28T09:04:43.497Z,26.65
2022-08-28T09:09:42.807Z,27.25
2022-08-28T09:15:05.277Z,27.79
2022-08-28T09:19:56.936Z,27.97
2022-08-28T09:24:48.928Z,27.92
2022-08-28T09:29:43.373Z,27.86
2022-08-28T09:34:38.989Z,27.93
2022-08-28T09:39:32.791Z,27.77
2022-08-28T09:44:25.349Z,27.99
2022-08-28T09:49:24.454Z,28.13
2022-08-28T09:54:32.382Z,28.42
2022-08-28T09:59:26.546Z,28.51
2022-08-28T10:04:33.542Z,28.64
2022-08-28T10:09:37.206Z,28.78
2022-08-28T10:14:38.237Z,28.90
2022-08-28T10:19:54.696Z,29.38
2022-08-28T10:25:35.534Z,29.19
2022-08-28T10:30:31.633Z,29.26
2022-08-28T10:35:44.874Z,29.84
2022-08-28T10:41:06.334Z,30.19
2022-08-28T10:46:08.891Z,29.85
2022-08-28T10:51:05.480Z,29.78
2022-08-28T10:56:04.003Z,29.90
2022-08-28T11:01:13.311Z,29.42
2022-08-28T11:06:33.412Z,29.37
2022-08-28T11:11:45.072Z,29.59
2022-08-28T11:16:45.934Z,29.77
2022-08-28T11:22:00.665Z,29.79
2022-08-28T11:27:25.115Z,29.95
2022-08-28T11:32:31.901Z,29.92
2022-08-28T11:37:46.142Z,29.84
2022-08-28T11:42:37.922Z,29.71
2022-08-28T11:47:37.584Z,29.35
2022-08-28T11:52:47.490Z,28.72
2022-08-28T12:02:55.153Z,28.11
2022-08-28T12:07:51.621Z,27.88
2022-08-28T12:12:46.306Z,27.89
2022-08-28T12:17:44.678Z,27.91
2022-08-28T12:22:53.218Z,27.77
2022-08-28T12:27:45.010Z,27.54
2022-08-28T12:32:50.068Z,27.44
2022-08-28T12:37:58.659Z,27.31
2022-08-28T12:43:00.763Z,26.82
2022-08-28T12:47:56.563Z,26.47
2022-08-28T12:52:54.201Z,26.24
2022-08-28T12:57:47.403Z,26.28
2022-08-28T13:02:41.413Z,26.11
2022-08-28T13:07:40.611Z,25.91
2022-08-28T13:12:56.004Z,25.81
2022-08-28T13:17:52.222Z,25.55
2022-08-28T13:22:50.664Z,25.48
2022-08-28T13:27:43.070Z,25.42
2022-08-28T13:32:39.029Z,25.28
2022-08-28T13:37:48.084Z,25.29
2022-08-28T13:42:39.752Z,25.23
2022-08-28T13:47:31.408Z,25.09
2022-08-28T13:52:23.194Z,25.10
2022-08-28T13:57:17.004Z,25.07
2022-08-28T14:02:30.580Z,25.05
2022-08-28T14:07:23.169Z,25.01
2022-08-28T14:12:14.802Z,24.95
2022-08-28T14:17:08.508Z,24.98
2022-08-28T14:22:00.400Z,25.08
2022-08-28T14:26:52.171Z,25.00
2022-08-28T14:31:45.150Z,25.08
2022-08-28T14:36:37.254Z,25.01
2022-08-28T14:41:29.143Z,24.99
2022-08-28T14:46:28.657Z,24.91
2022-08-28T14:51:20.556Z,24.86
2022-08-28T14:56:12.235Z,24.89
2022-08-28T15:01:05.129Z,24.91
2022-08-28T15:06:09.304Z,24.89
2022-08-28T15:11:06.986Z,25.03
2022-08-28T15:16:15.986Z,25.17
2022-08-28T15:21:19.170Z,24.86
2022-08-28T15:26:15.167Z,24.74
2022-08-28T15:31:07.213Z,24.59
2022-08-28T15:35:58.870Z,24.48
2022-08-28T15:41:09.367Z,24.40
2022-08-28T15:46:01.082Z,24.30
2022-08-28T15:50:52.775Z,24.31
2022-08-28T15:55:44.454Z,24.31
2022-08-28T16:00:36.160Z,24.28
2022-08-28T16:05:32.325Z,24.26
2022-08-28T16:10:25.968Z,24.31
2022-08-28T16:15:21.225Z,24.30
2022-08-28T16:20:13.236Z,24.36
2022-08-28T16:25:06.873Z,24.27
2022-08-28T16:29:58.514Z,24.22
2022-08-28T16:34:51.872Z,24.14
2022-08-28T16:39:43.609Z,24.04
2022-08-28T16:44:36.941Z,23.94
2022-08-28T16:49:28.621Z,23.80
2022-08-28T16:54:21.580Z,23.79
2022-08-28T16:59:16.602Z,23.74
2022-08-28T17:04:09.177Z,23.65
2022-08-28T17:09:00.889Z,23.55
2022-08-28T17:13:52.544Z,23.46
2022-08-28T17:18:48.156Z,23.40
2022-08-28T17:23:44.381Z,23.36
2022-08-28T17:28:36.076Z,23.35
2022-08-28T17:33:28.030Z,23.30
2022-08-28T17:38:19.640Z,23.20
2022-08-28T17:43:11.334Z,23.13
2022-08-28T17:48:03.221Z,23.10
2022-08-28T17:52:55.715Z,23.07
2022-08-28T17:57:47.435Z,23.00
2022-08-28T18:02:40.048Z,22.92
2022-08-28T18:07:31.669Z,22.83
2022-08-28T18:12:23.554Z,22.81
2022-08-28T18:17:16.258Z,22.76
2022-08-28T18:22:10.357Z,22.68
2022-08-28T18:27:02.432Z,22.62
2022-08-28T18:31:54.254Z,22.56
2022-08-28T18:36:46.129Z,22.46
2022-08-28T18:41:43.481Z,22.30
2022-08-28T18:46:36.136Z,22.17
2022-08-28T18:51:32.300Z,22.06
2022-08-28T18:56:23.917Z,21.90
2022-08-28T19:01:20.047Z,21.76
2022-08-28T19:06:13.322Z,21.66
2022-08-28T19:11:13.566Z,21.54
2022-08-28T19:16:05.933Z,21.37
2022-08-28T19:21:07.336Z,21.30
2022-08-28T19:25:59.087Z,21.21
2022-08-28T19:30:50.837Z,21.08
2022-08-28T19:35:43.291Z,20.98
2022-08-28T19:40:35.118Z,20.87
2022-08-28T19:45:27.358Z,20.77
2022-08-28T19:50:20.098Z,20.69
2022-08-28T19:55:21.980Z,20.62
2022-08-28T20:00:17.730Z,20.55
2022-08-28T20:05:10.561Z,20.47
2022-08-28T20:10:02.422Z,20.38
2022-08-28T20:14:54.240Z,20.35
2022-08-28T20:19:47.712Z,20.27
2022-08-28T20:24:39.548Z,20.20
2022-08-28T20:29:33.840Z,20.13
2022-08-28T20:34:26.211Z,20.09
2022-08-28T20:39:18.400Z,20.04
2022-08-28T20:44:12.969Z,20.03
2022-08-28T20:49:05.329Z,19.99
2022-08-28T20:53:57.136Z,19.93
2022-08-28T20:58:48.956Z,19.89
2022-08-28T21:03:40.728Z,19.82
2022-08-28T21:08:32.542Z,19.75
2022-08-28T21:13:24.243Z,19.71
2022-08-28T21:18:16.191Z,19.65
2022-08-28T21:23:08.396Z,19.60
2022-08-28T21:28:01.350Z,19.53
2022-08-28T21:32:56.428Z,19.45
2022-08-28T21:37:49.050Z,19.38
2022-08-28T21:42:41.146Z,19.34
2022-08-28T21:47:33.866Z,19.29
2022-08-28T21:52:28.985Z,19.22
2022-08-28T21:57:20.668Z,19.15
2022-08-28T22:02:12.521Z,19.10
2022-08-28T22:07:04.362Z,19.08
2022-08-28T22:11:56.132Z,19.05
2022-08-28T22:16:47.956Z,19.02
2022-08-28T22:21:58.541Z,19.02
2022-08-28T22:26:50.376Z,19.03
2022-08-28T22:31:49.480Z,19.01
2022-08-28T22:36:41.316Z,18.96
2022-08-28T22:41:33.107Z,18.91
2022-08-28T22:46:25.248Z,18.86
2022-08-28T22:51:18.686Z,18.79
2022-08-28T22:56:11.960Z,18.75
2022-08-28T23:01:11.635Z,18.70
2022-08-28T23:06:04.586Z,18.67
2022-08-28T23:10:59.270Z,18.61
2022-08-28T23:15:51.232Z,18.60
2022-08-28T23:20:43.582Z,18.56
2022-08-28T23:25:35.483Z,18.53
2022-08-28T23:30:27.617Z,18.52
2022-08-28T23:35:19.772Z,18.47
2022-08-28T23:40:16.086Z,18.43
2022-08-28T23:45:08.732Z,18.39
2022-08-28T23:50:00.617Z,18.34
2022-08-28T23:54:52.625Z,18.30
2022-08-28T23:59:44.289Z,18.19
